sensor_id;sensor_type;location;lat;lon;timestamp;temperature;humidity
54126;DHT22;40360;52.992;6.796;2023-11-19T00:00:42;11.30;99.90
54126;DHT22;40360;52.992;6.796;2023-11-19T00:03:08;11.30;99.90
54126;DHT22;40360;52.992;6.796;2023-11-19T00:05:34;11.30;99.90
54126;DHT22;40360;52.992;6.796;2023-11-19T00:07:59;11.30;99.90
54126;DHT22;40360;52.992;6.796;2023-11-19T00:10:25;11.40;99.90
54126;DHT22;40360;52.992;6.796;2023-11-19T00:12:51;11.40;99.90
54126;DHT22;40360;52.992;6.796;2023-11-19T00:15:17;11.40;99.90
54126;DHT22;40360;52.992;6.796;2023-11-19T00:17:47;11.40;99.90
54126;DHT22;40360;52.992;6.796;2023-11-19T00:20:15;11.40;99.90
54126;DHT22;40360;52.992;6.796;2023-11-19T00:22:42;11.40;99.90
54126;DHT22;40360;52.992;6.796;2023-11-19T00:25:08;11.40;99.90
54126;DHT22;40360;52.992;6.796;2023-11-19T00:27:35;11.40;99.90
54126;DHT22;40360;52.992;6.796;2023-11-19T00:30:02;11.40;99.90
54126;DHT22;40360;52.992;6.796;2023-11-19T00:32:31;11.50;99.90
54126;DHT22;40360;52.992;6.796;2023-11-19T00:34:57;11.50;99.90
54126;DHT22;40360;52.992;6.796;2023-11-19T00:37:23;11.50;99.90
54126;DHT22;40360;52.992;6.796;2023-11-19T00:39:49;11.60;99.90
54126;DHT22;40360;52.992;6.796;2023-11-19T00:42:14;11.60;99.90
54126;DHT22;40360;52.992;6.796;2023-11-19T00:44:40;11.60;99.90
54126;DHT22;40360;52.992;6.796;2023-11-19T00:47:07;11.70;99.90
54126;DHT22;40360;52.992;6.796;2023-11-19T00:49:32;11.70;99.90
54126;DHT22;40360;52.992;6.796;2023-11-19T00:51:59;11.80;99.90
54126;DHT22;40360;52.992;6.796;2023-11-19T00:54:25;11.80;99.90
54126;DHT22;40360;52.992;6.796;2023-11-19T00:56:54;11.80;99.90
54126;DHT22;40360;52.992;6.796;2023-11-19T00:59:20;11.90;99.90
54126;DHT22;40360;52.992;6.796;2023-11-19T01:01:46;12.00;99.90
54126;DHT22;40360;52.992;6.796;2023-11-19T01:04:16;12.00;99.90
54126;DHT22;40360;52.992;6.796;2023-11-19T01:06:42;12.10;99.90
54126;DHT22;40360;52.992;6.796;2023-11-19T01:09:09;12.20;99.90
54126;DHT22;40360;52.992;6.796;2023-11-19T01:11:35;12.20;99.90
54126;DHT22;40360;52.992;6.796;2023-11-19T01:14:01;12.20;99.90
54126;DHT22;40360;52.992;6.796;2023-11-19T01:16:27;12.20;99.90
54126;DHT22;40360;52.992;6.796;2023-11-19T01:18:52;12.30;99.90
54126;DHT22;40360;52.992;6.796;2023-11-19T01:21:18;12.30;99.90
54126;DHT22;40360;52.992;6.796;2023-11-19T01:23:44;12.30;99.90
54126;DHT22;40360;52.992;6.796;2023-11-19T01:26:14;12.30;99.90
54126;DHT22;40360;52.992;6.796;2023-11-19T01:28:40;12.30;99.90
54126;DHT22;40360;52.992;6.796;2023-11-19T01:31:08;12.30;99.90
54126;DHT22;40360;52.992;6.796;2023-11-19T01:33:36;12.20;99.90
54126;DHT22;40360;52.992;6.796;2023-11-19T01:36:01;12.40;99.90
54126;DHT22;40360;52.992;6.796;2023-11-19T01:38:27;12.30;99.90
54126;DHT22;40360;52.992;6.796;2023-11-19T01:40:56;12.40;99.90
54126;DHT22;40360;52.992;6.796;2023-11-19T01:43:37;12.30;99.90
54126;DHT22;40360;52.992;6.796;2023-11-19T01:46:04;12.40;99.90
54126;DHT22;40360;52.992;6.796;2023-11-19T01:48:31;12.30;99.90
54126;DHT22;40360;52.992;6.796;2023-11-19T01:50:58;12.40;99.90
54126;DHT22;40360;52.992;6.796;2023-11-19T01:53:24;12.50;99.90
54126;DHT22;40360;52.992;6.796;2023-11-19T01:55:50;12.40;99.90
54126;DHT22;40360;52.992;6.796;2023-11-19T01:58:16;12.50;99.90
54126;DHT22;40360;52.992;6.796;2023-11-19T02:00:44;12.50;99.90
54126;DHT22;40360;52.992;6.796;2023-11-19T02:03:10;12.50;99.90
54126;DHT22;40360;52.992;6.796;2023-11-19T02:05:38;12.50;99.90
54126;DHT22;40360;52.992;6.796;2023-11-19T02:08:04;12.50;99.90
54126;DHT22;40360;52.992;6.796;2023-11-19T02:10:30;12.50;99.90
54126;DHT22;40360;52.992;6.796;2023-11-19T02:12:58;12.60;99.90
54126;DHT22;40360;52.992;6.796;2023-11-19T02:15:24;12.60;99.90
54126;DHT22;40360;52.992;6.796;2023-11-19T02:17:50;12.50;99.90
54126;DHT22;40360;52.992;6.796;2023-11-19T02:20:17;12.60;99.90
54126;DHT22;40360;52.992;6.796;2023-11-19T02:22:48;12.50;99.90
54126;DHT22;40360;52.992;6.796;2023-11-19T02:25:30;12.50;99.90
54126;DHT22;40360;52.992;6.796;2023-11-19T02:27:59;12.50;99.90
54126;DHT22;40360;52.992;6.796;2023-11-19T02:30:25;12.40;99.90
54126;DHT22;40360;52.992;6.796;2023-11-19T02:32:59;12.40;99.90
54126;DHT22;40360;52.992;6.796;2023-11-19T02:35:27;12.40;99.90
54126;DHT22;40360;52.992;6.796;2023-11-19T02:37:54;12.40;99.90
54126;DHT22;40360;52.992;6.796;2023-11-19T02:40:20;12.50;99.90
54126;DHT22;40360;52.992;6.796;2023-11-19T02:42:48;12.50;99.90
54126;DHT22;40360;52.992;6.796;2023-11-19T02:45:15;12.50;99.90
54126;DHT22;40360;52.992;6.796;2023-11-19T02:47:41;12.50;99.90
54126;DHT22;40360;52.992;6.796;2023-11-19T02:50:11;12.60;99.90
54126;DHT22;40360;52.992;6.796;2023-11-19T02:52:44;12.60;99.90
54126;DHT22;40360;52.992;6.796;2023-11-19T02:55:11;12.60;99.90
54126;DHT22;40360;52.992;6.796;2023-11-19T02:57:40;12.60;99.90
54126;DHT22;40360;52.992;6.796;2023-11-19T03:00:15;12.60;99.90
54126;DHT22;40360;52.992;6.796;2023-11-19T03:02:45;12.60;99.90
54126;DHT22;40360;52.992;6.796;2023-11-19T03:05:19;13.00;99.90
54126;DHT22;40360;52.992;6.796;2023-11-19T03:07:45;12.60;99.90
54126;DHT22;40360;52.992;6.796;2023-11-19T03:10:11;12.60;99.90
54126;DHT22;40360;52.992;6.796;2023-11-19T03:12:41;12.60;99.90
54126;DHT22;40360;52.992;6.796;2023-11-19T03:15:07;12.50;99.90
54126;DHT22;40360;52.992;6.796;2023-11-19T03:17:41;12.60;99.90
54126;DHT22;40360;52.992;6.796;2023-11-19T03:20:10;12.50;99.90
54126;DHT22;40360;52.992;6.796;2023-11-19T03:22:39;12.50;99.90
54126;DHT22;40360;52.992;6.796;2023-11-19T03:25:07;12.50;99.90
54126;DHT22;40360;52.992;6.796;2023-11-19T03:27:43;12.50;99.90
54126;DHT22;40360;52.992;6.796;2023-11-19T03:30:09;12.50;99.90
54126;DHT22;40360;52.992;6.796;2023-11-19T03:32:35;12.50;99.90
54126;DHT22;40360;52.992;6.796;2023-11-19T03:35:01;12.50;99.90
54126;DHT22;40360;52.992;6.796;2023-11-19T03:37:29;12.40;99.90
54126;DHT22;40360;52.992;6.796;2023-11-19T03:39:56;12.40;99.90
54126;DHT22;40360;52.992;6.796;2023-11-19T03:42:28;12.50;99.90
54126;DHT22;40360;52.992;6.796;2023-11-19T03:44:55;12.40;99.90
54126;DHT22;40360;52.992;6.796;2023-11-19T03:47:21;12.40;99.90
54126;DHT22;40360;52.992;6.796;2023-11-19T03:49:50;12.40;99.90
54126;DHT22;40360;52.992;6.796;2023-11-19T03:52:17;12.40;99.90
54126;DHT22;40360;52.992;6.796;2023-11-19T03:54:43;12.40;99.90
54126;DHT22;40360;52.992;6.796;2023-11-19T03:57:09;12.40;99.90
54126;DHT22;40360;52.992;6.796;2023-11-19T03:59:36;12.40;99.90
54126;DHT22;40360;52.992;6.796;2023-11-19T04:02:02;12.40;99.90
54126;DHT22;40360;52.992;6.796;2023-11-19T04:04:28;12.40;99.90
54126;DHT22;40360;52.992;6.796;2023-11-19T04:06:58;12.30;99.90
54126;DHT22;40360;52.992;6.796;2023-11-19T04:09:26;12.40;99.90
54126;DHT22;40360;52.992;6.796;2023-11-19T04:11:52;12.30;99.90
54126;DHT22;40360;52.992;6.796;2023-11-19T04:14:18;12.40;99.90
54126;DHT22;40360;52.992;6.796;2023-11-19T04:16:46;12.40;99.90
54126;DHT22;40360;52.992;6.796;2023-11-19T04:19:12;12.30;99.90
54126;DHT22;40360;52.992;6.796;2023-11-19T04:21:41;12.40;99.90
54126;DHT22;40360;52.992;6.796;2023-11-19T04:24:10;12.40;99.90
54126;DHT22;40360;52.992;6.796;2023-11-19T04:26:41;12.30;99.90
54126;DHT22;40360;52.992;6.796;2023-11-19T04:29:12;12.30;99.90
54126;DHT22;40360;52.992;6.796;2023-11-19T04:31:38;12.30;99.90
54126;DHT22;40360;52.992;6.796;2023-11-19T04:34:05;12.30;99.90
54126;DHT22;40360;52.992;6.796;2023-11-19T04:36:32;12.30;99.90
54126;DHT22;40360;52.992;6.796;2023-11-19T04:39:01;12.30;99.90
54126;DHT22;40360;52.992;6.796;2023-11-19T04:41:28;12.30;99.90
54126;DHT22;40360;52.992;6.796;2023-11-19T04:43:54;12.20;99.90
54126;DHT22;40360;52.992;6.796;2023-11-19T04:46:19;12.20;99.90
54126;DHT22;40360;52.992;6.796;2023-11-19T04:48:45;12.20;99.90
54126;DHT22;40360;52.992;6.796;2023-11-19T04:51:11;12.10;99.90
54126;DHT22;40360;52.992;6.796;2023-11-19T04:53:37;12.10;99.90
54126;DHT22;40360;52.992;6.796;2023-11-19T04:56:10;12.00;99.90
54126;DHT22;40360;52.992;6.796;2023-11-19T04:58:36;12.00;99.90
54126;DHT22;40360;52.992;6.796;2023-11-19T05:01:03;11.90;99.90
54126;DHT22;40360;52.992;6.796;2023-11-19T05:03:29;11.90;99.90
54126;DHT22;40360;52.992;6.796;2023-11-19T05:05:55;11.80;99.90
54126;DHT22;40360;52.992;6.796;2023-11-19T05:08:21;11.80;99.90
54126;DHT22;40360;52.992;6.796;2023-11-19T05:10:47;11.90;99.90
54126;DHT22;40360;52.992;6.796;2023-11-19T05:13:12;11.90;99.90
54126;DHT22;40360;52.992;6.796;2023-11-19T05:15:38;11.80;99.90
54126;DHT22;40360;52.992;6.796;2023-11-19T05:18:04;11.90;99.90
54126;DHT22;40360;52.992;6.796;2023-11-19T05:20:30;11.90;99.90
54126;DHT22;40360;52.992;6.796;2023-11-19T05:22:56;11.90;99.90
54126;DHT22;40360;52.992;6.796;2023-11-19T05:25:22;11.90;99.90
54126;DHT22;40360;52.992;6.796;2023-11-19T05:27:48;11.90;99.90
54126;DHT22;40360;52.992;6.796;2023-11-19T05:30:14;11.90;99.90
54126;DHT22;40360;52.992;6.796;2023-11-19T05:32:39;11.90;99.90
54126;DHT22;40360;52.992;6.796;2023-11-19T05:35:05;11.90;99.90
54126;DHT22;40360;52.992;6.796;2023-11-19T05:37:31;11.90;99.90
54126;DHT22;40360;52.992;6.796;2023-11-19T05:39:56;11.90;99.90
54126;DHT22;40360;52.992;6.796;2023-11-19T05:42:22;11.90;99.90
54126;DHT22;40360;52.992;6.796;2023-11-19T06:02:29;11.90;99.90
54126;DHT22;40360;52.992;6.796;2023-11-19T06:04:55;11.90;99.90
54126;DHT22;40360;52.992;6.796;2023-11-19T06:07:21;11.90;99.90
54126;DHT22;40360;52.992;6.796;2023-11-19T06:09:46;11.90;99.90
54126;DHT22;40360;52.992;6.796;2023-11-19T06:12:12;11.90;99.90
54126;DHT22;40360;52.992;6.796;2023-11-19T06:14:40;11.90;99.90
54126;DHT22;40360;52.992;6.796;2023-11-19T06:17:06;11.90;99.90
54126;DHT22;40360;52.992;6.796;2023-11-19T06:19:31;11.90;99.90
54126;DHT22;40360;52.992;6.796;2023-11-19T06:21:57;11.90;99.90
54126;DHT22;40360;52.992;6.796;2023-11-19T06:24:23;11.80;99.90
54126;DHT22;40360;52.992;6.796;2023-11-19T06:26:48;11.80;99.90
54126;DHT22;40360;52.992;6.796;2023-11-19T06:29:14;11.80;99.90
54126;DHT22;40360;52.992;6.796;2023-11-19T06:31:44;11.80;99.90
54126;DHT22;40360;52.992;6.796;2023-11-19T06:34:10;11.80;99.90
54126;DHT22;40360;52.992;6.796;2023-11-19T06:36:35;11.80;99.90
54126;DHT22;40360;52.992;6.796;2023-11-19T06:39:01;11.70;99.90
54126;DHT22;40360;52.992;6.796;2023-11-19T06:41:28;11.80;99.90
54126;DHT22;40360;52.992;6.796;2023-11-19T06:43:54;11.80;99.90
54126;DHT22;40360;52.992;6.796;2023-11-19T06:46:20;11.80;99.90
54126;DHT22;40360;52.992;6.796;2023-11-19T06:48:46;11.80;99.90
54126;DHT22;40360;52.992;6.796;2023-11-19T06:51:12;11.80;99.90
54126;DHT22;40360;52.992;6.796;2023-11-19T06:53:38;11.70;99.90
54126;DHT22;40360;52.992;6.796;2023-11-19T06:56:10;11.70;99.90
54126;DHT22;40360;52.992;6.796;2023-11-19T06:58:42;11.70;99.90
54126;DHT22;40360;52.992;6.796;2023-11-19T07:01:08;11.70;99.90
54126;DHT22;40360;52.992;6.796;2023-11-19T07:03:35;11.60;99.90
54126;DHT22;40360;52.992;6.796;2023-11-19T07:06:00;11.60;99.90
54126;DHT22;40360;52.992;6.796;2023-11-19T07:08:26;11.60;99.90
54126;DHT22;40360;52.992;6.796;2023-11-19T07:10:52;11.60;99.90
54126;DHT22;40360;52.992;6.796;2023-11-19T07:13:18;11.60;99.90
54126;DHT22;40360;52.992;6.796;2023-11-19T07:15:45;11.60;99.90
54126;DHT22;40360;52.992;6.796;2023-11-19T07:18:11;11.60;99.90
54126;DHT22;40360;52.992;6.796;2023-11-19T07:20:37;11.60;99.90
54126;DHT22;40360;52.992;6.796;2023-11-19T07:23:03;11.60;99.90
54126;DHT22;40360;52.992;6.796;2023-11-19T07:25:29;11.60;99.90
54126;DHT22;40360;52.992;6.796;2023-11-19T07:27:55;11.60;99.90
54126;DHT22;40360;52.992;6.796;2023-11-19T07:30:22;11.60;99.90
54126;DHT22;40360;52.992;6.796;2023-11-19T07:32:47;11.60;99.90
54126;DHT22;40360;52.992;6.796;2023-11-19T07:35:14;11.60;99.90
54126;DHT22;40360;52.992;6.796;2023-11-19T07:37:41;11.70;99.90
54126;DHT22;40360;52.992;6.796;2023-11-19T07:40:08;11.60;99.90
54126;DHT22;40360;52.992;6.796;2023-11-19T07:42:34;11.60;99.90
54126;DHT22;40360;52.992;6.796;2023-11-19T07:45:00;11.60;99.90
54126;DHT22;40360;52.992;6.796;2023-11-19T07:47:25;11.60;99.90
54126;DHT22;40360;52.992;6.796;2023-11-19T07:49:51;11.60;99.90
54126;DHT22;40360;52.992;6.796;2023-11-19T07:52:17;11.60;99.90
54126;DHT22;40360;52.992;6.796;2023-11-19T07:54:42;11.60;99.90
54126;DHT22;40360;52.992;6.796;2023-11-19T07:57:09;11.60;99.90
54126;DHT22;40360;52.992;6.796;2023-11-19T07:59:35;11.50;99.90
54126;DHT22;40360;52.992;6.796;2023-11-19T08:02:01;11.50;99.90
54126;DHT22;40360;52.992;6.796;2023-11-19T08:04:26;11.30;99.90
54126;DHT22;40360;52.992;6.796;2023-11-19T08:06:53;11.50;99.90
54126;DHT22;40360;52.992;6.796;2023-11-19T08:09:18;11.60;99.90
54126;DHT22;40360;52.992;6.796;2023-11-19T08:11:44;11.60;99.90
54126;DHT22;40360;52.992;6.796;2023-11-19T08:14:10;11.60;99.90
54126;DHT22;40360;52.992;6.796;2023-11-19T08:16:36;11.60;99.90
54126;DHT22;40360;52.992;6.796;2023-11-19T08:19:03;11.60;99.90
54126;DHT22;40360;52.992;6.796;2023-11-19T08:21:29;11.60;99.90
54126;DHT22;40360;52.992;6.796;2023-11-19T08:23:54;11.60;99.90
54126;DHT22;40360;52.992;6.796;2023-11-19T08:26:20;11.60;99.90
54126;DHT22;40360;52.992;6.796;2023-11-19T08:28:46;11.60;99.90
54126;DHT22;40360;52.992;6.796;2023-11-19T08:31:12;11.60;99.90
54126;DHT22;40360;52.992;6.796;2023-11-19T08:33:38;11.60;99.90
54126;DHT22;40360;52.992;6.796;2023-11-19T08:36:04;11.70;99.90
54126;DHT22;40360;52.992;6.796;2023-11-19T08:38:30;11.70;99.90
54126;DHT22;40360;52.992;6.796;2023-11-19T08:40:57;11.70;99.90
54126;DHT22;40360;52.992;6.796;2023-11-19T08:43:26;11.70;99.90
54126;DHT22;40360;52.992;6.796;2023-11-19T08:45:52;11.70;99.90
54126;DHT22;40360;52.992;6.796;2023-11-19T08:48:17;11.70;99.90
54126;DHT22;40360;52.992;6.796;2023-11-19T08:50:43;11.70;99.90
54126;DHT22;40360;52.992;6.796;2023-11-19T08:53:09;11.70;99.90
54126;DHT22;40360;52.992;6.796;2023-11-19T08:55:34;11.60;99.90
54126;DHT22;40360;52.992;6.796;2023-11-19T08:58:00;11.60;99.90
54126;DHT22;40360;52.992;6.796;2023-11-19T09:00:26;11.60;99.90
54126;DHT22;40360;52.992;6.796;2023-11-19T09:02:52;11.60;99.90
54126;DHT22;40360;52.992;6.796;2023-11-19T09:05:18;11.60;99.90
54126;DHT22;40360;52.992;6.796;2023-11-19T09:07:44;11.50;99.90
54126;DHT22;40360;52.992;6.796;2023-11-19T09:10:10;11.50;99.90
54126;DHT22;40360;52.992;6.796;2023-11-19T09:12:37;11.50;99.90
54126;DHT22;40360;52.992;6.796;2023-11-19T09:15:03;11.50;99.90
54126;DHT22;40360;52.992;6.796;2023-11-19T09:17:29;11.40;99.90
54126;DHT22;40360;52.992;6.796;2023-11-19T09:19:55;11.50;99.90
54126;DHT22;40360;52.992;6.796;2023-11-19T09:22:21;11.50;99.90
54126;DHT22;40360;52.992;6.796;2023-11-19T09:24:47;11.60;99.90
54126;DHT22;40360;52.992;6.796;2023-11-19T09:27:13;11.60;99.90
54126;DHT22;40360;52.992;6.796;2023-11-19T09:29:39;11.60;99.90
54126;DHT22;40360;52.992;6.796;2023-11-19T09:32:05;11.70;99.90
54126;DHT22;40360;52.992;6.796;2023-11-19T09:34:31;11.70;99.90
54126;DHT22;40360;52.992;6.796;2023-11-19T09:36:57;11.70;99.90
54126;DHT22;40360;52.992;6.796;2023-11-19T09:39:23;11.70;99.90
54126;DHT22;40360;52.992;6.796;2023-11-19T09:41:51;11.70;99.90
54126;DHT22;40360;52.992;6.796;2023-11-19T09:44:17;11.70;99.90
54126;DHT22;40360;52.992;6.796;2023-11-19T09:46:44;11.70;99.90
54126;DHT22;40360;52.992;6.796;2023-11-19T09:49:11;11.80;99.90
54126;DHT22;40360;52.992;6.796;2023-11-19T09:51:38;11.80;99.90
54126;DHT22;40360;52.992;6.796;2023-11-19T09:54:04;11.80;99.90
54126;DHT22;40360;52.992;6.796;2023-11-19T09:56:30;11.80;99.90
54126;DHT22;40360;52.992;6.796;2023-11-19T09:58:56;12.10;99.90
54126;DHT22;40360;52.992;6.796;2023-11-19T10:01:22;11.90;99.90
54126;DHT22;40360;52.992;6.796;2023-11-19T10:03:48;11.90;99.90
54126;DHT22;40360;52.992;6.796;2023-11-19T10:06:15;11.90;99.90
54126;DHT22;40360;52.992;6.796;2023-11-19T10:08:42;12.00;99.90
54126;DHT22;40360;52.992;6.796;2023-11-19T10:11:09;12.00;99.90
54126;DHT22;40360;52.992;6.796;2023-11-19T10:13:37;12.00;99.90
54126;DHT22;40360;52.992;6.796;2023-11-19T10:16:13;12.00;99.90
54126;DHT22;40360;52.992;6.796;2023-11-19T10:18:47;12.00;99.90
54126;DHT22;40360;52.992;6.796;2023-11-19T10:21:14;12.00;99.90
54126;DHT22;40360;52.992;6.796;2023-11-19T10:23:54;12.00;99.90
54126;DHT22;40360;52.992;6.796;2023-11-19T10:26:20;11.90;99.90
54126;DHT22;40360;52.992;6.796;2023-11-19T10:28:49;11.80;99.90
54126;DHT22;40360;52.992;6.796;2023-11-19T10:31:16;11.70;99.90
54126;DHT22;40360;52.992;6.796;2023-11-19T10:33:45;11.70;99.90
54126;DHT22;40360;52.992;6.796;2023-11-19T10:36:12;11.70;99.90
54126;DHT22;40360;52.992;6.796;2023-11-19T10:38:39;11.70;99.90
54126;DHT22;40360;52.992;6.796;2023-11-19T10:41:06;11.60;99.90
54126;DHT22;40360;52.992;6.796;2023-11-19T10:43:44;11.70;99.90
54126;DHT22;40360;52.992;6.796;2023-11-19T10:46:11;11.60;99.90
54126;DHT22;40360;52.992;6.796;2023-11-19T10:48:39;11.60;99.90
54126;DHT22;40360;52.992;6.796;2023-11-19T10:51:06;11.50;99.90
54126;DHT22;40360;52.992;6.796;2023-11-19T10:53:38;11.40;99.90
54126;DHT22;40360;52.992;6.796;2023-11-19T10:56:10;11.40;99.90
54126;DHT22;40360;52.992;6.796;2023-11-19T10:58:37;11.30;99.90
54126;DHT22;40360;52.992;6.796;2023-11-19T11:01:13;11.30;99.90
54126;DHT22;40360;52.992;6.796;2023-11-19T11:03:42;11.20;99.90
54126;DHT22;40360;52.992;6.796;2023-11-19T11:06:13;11.20;99.90
54126;DHT22;40360;52.992;6.796;2023-11-19T11:08:39;11.20;99.90
54126;DHT22;40360;52.992;6.796;2023-11-19T11:11:05;11.30;99.90
54126;DHT22;40360;52.992;6.796;2023-11-19T11:13:33;11.20;99.90
54126;DHT22;40360;52.992;6.796;2023-11-19T11:15:59;11.20;99.90
54126;DHT22;40360;52.992;6.796;2023-11-19T11:18:26;11.10;99.90
54126;DHT22;40360;52.992;6.796;2023-11-19T11:21:01;11.10;99.90
54126;DHT22;40360;52.992;6.796;2023-11-19T11:23:37;11.10;99.90
54126;DHT22;40360;52.992;6.796;2023-11-19T11:29:01;11.10;99.90
54126;DHT22;40360;52.992;6.796;2023-11-19T11:37:27;11.30;99.90
54126;DHT22;40360;52.992;6.796;2023-11-19T11:39:57;11.30;99.90
54126;DHT22;40360;52.992;6.796;2023-11-19T11:45:06;11.40;99.90
54126;DHT22;40360;52.992;6.796;2023-11-19T11:50:23;11.60;99.90
54126;DHT22;40360;52.992;6.796;2023-11-19T11:57:57;11.70;99.90
54126;DHT22;40360;52.992;6.796;2023-11-19T12:02:56;11.80;99.90
54126;DHT22;40360;52.992;6.796;2023-11-19T12:05:22;11.70;99.90
54126;DHT22;40360;52.992;6.796;2023-11-19T12:08:00;11.70;99.90
54126;DHT22;40360;52.992;6.796;2023-11-19T12:10:29;11.70;99.90
54126;DHT22;40360;52.992;6.796;2023-11-19T12:13:01;11.70;99.90
54126;DHT22;40360;52.992;6.796;2023-11-19T12:15:27;11.70;99.90
54126;DHT22;40360;52.992;6.796;2023-11-19T12:17:54;11.70;99.90
54126;DHT22;40360;52.992;6.796;2023-11-19T12:20:22;11.80;99.90
54126;DHT22;40360;52.992;6.796;2023-11-19T12:22:48;11.80;99.90
54126;DHT22;40360;52.992;6.796;2023-11-19T12:25:16;11.70;99.90
54126;DHT22;40360;52.992;6.796;2023-11-19T12:27:44;11.70;99.90
54126;DHT22;40360;52.992;6.796;2023-11-19T12:30:11;11.70;99.90
54126;DHT22;40360;52.992;6.796;2023-11-19T12:32:41;11.80;99.90
54126;DHT22;40360;52.992;6.796;2023-11-19T12:35:12;11.80;99.90
54126;DHT22;40360;52.992;6.796;2023-11-19T12:37:46;11.80;99.90
54126;DHT22;40360;52.992;6.796;2023-11-19T12:42:47;11.70;99.90
54126;DHT22;40360;52.992;6.796;2023-11-19T12:45:14;11.70;99.90
54126;DHT22;40360;52.992;6.796;2023-11-19T12:47:42;11.70;99.90
54126;DHT22;40360;52.992;6.796;2023-11-19T12:50:09;11.70;99.90
54126;DHT22;40360;52.992;6.796;2023-11-19T12:52:36;11.70;99.90
54126;DHT22;40360;52.992;6.796;2023-11-19T12:55:27;11.70;99.90
54126;DHT22;40360;52.992;6.796;2023-11-19T12:57:53;11.70;99.90
54126;DHT22;40360;52.992;6.796;2023-11-19T13:00:21;11.70;99.90
54126;DHT22;40360;52.992;6.796;2023-11-19T13:02:49;11.70;99.90
54126;DHT22;40360;52.992;6.796;2023-11-19T13:05:32;11.70;99.90
54126;DHT22;40360;52.992;6.796;2023-11-19T13:08:03;11.80;99.90
54126;DHT22;40360;52.992;6.796;2023-11-19T13:10:31;11.80;99.90
54126;DHT22;40360;52.992;6.796;2023-11-19T13:13:05;11.80;99.90
54126;DHT22;40360;52.992;6.796;2023-11-19T13:15:32;11.80;99.90
54126;DHT22;40360;52.992;6.796;2023-11-19T13:17:59;11.80;99.90
54126;DHT22;40360;52.992;6.796;2023-11-19T13:20:25;11.80;99.90
54126;DHT22;40360;52.992;6.796;2023-11-19T13:23:02;11.80;99.90
54126;DHT22;40360;52.992;6.796;2023-11-19T13:25:28;11.80;99.90
54126;DHT22;40360;52.992;6.796;2023-11-19T13:27:55;11.80;99.90
54126;DHT22;40360;52.992;6.796;2023-11-19T13:30:22;11.70;99.90
54126;DHT22;40360;52.992;6.796;2023-11-19T13:32:48;11.70;99.90
54126;DHT22;40360;52.992;6.796;2023-11-19T13:35:15;11.70;99.90
54126;DHT22;40360;52.992;6.796;2023-11-19T13:37:41;11.70;99.90
54126;DHT22;40360;52.992;6.796;2023-11-19T13:40:07;11.70;99.90
54126;DHT22;40360;52.992;6.796;2023-11-19T13:42:33;11.60;99.90
54126;DHT22;40360;52.992;6.796;2023-11-19T13:44:58;11.60;99.90
54126;DHT22;40360;52.992;6.796;2023-11-19T13:47:24;11.60;99.90
54126;DHT22;40360;52.992;6.796;2023-11-19T13:49:50;11.60;99.90
54126;DHT22;40360;52.992;6.796;2023-11-19T13:52:15;11.60;99.90
54126;DHT22;40360;52.992;6.796;2023-11-19T13:54:41;11.60;99.90
54126;DHT22;40360;52.992;6.796;2023-11-19T13:57:07;11.60;99.90
54126;DHT22;40360;52.992;6.796;2023-11-19T13:59:33;11.60;99.90
54126;DHT22;40360;52.992;6.796;2023-11-19T14:01:58;11.60;99.90
54126;DHT22;40360;52.992;6.796;2023-11-19T14:04:24;11.50;99.90
54126;DHT22;40360;52.992;6.796;2023-11-19T14:06:51;11.50;99.90
54126;DHT22;40360;52.992;6.796;2023-11-19T14:09:17;11.50;99.90
54126;DHT22;40360;52.992;6.796;2023-11-19T14:11:43;11.50;99.90
54126;DHT22;40360;52.992;6.796;2023-11-19T14:14:09;11.50;99.90
54126;DHT22;40360;52.992;6.796;2023-11-19T14:16:37;11.50;99.90
54126;DHT22;40360;52.992;6.796;2023-11-19T14:19:03;11.40;99.90
54126;DHT22;40360;52.992;6.796;2023-11-19T14:21:29;11.40;99.90
54126;DHT22;40360;52.992;6.796;2023-11-19T14:23:54;11.40;99.90
54126;DHT22;40360;52.992;6.796;2023-11-19T14:26:20;11.40;99.90
54126;DHT22;40360;52.992;6.796;2023-11-19T14:28:46;11.40;99.90
54126;DHT22;40360;52.992;6.796;2023-11-19T14:31:11;11.50;99.90
54126;DHT22;40360;52.992;6.796;2023-11-19T14:33:37;11.50;99.90
54126;DHT22;40360;52.992;6.796;2023-11-19T14:36:04;11.50;99.90
54126;DHT22;40360;52.992;6.796;2023-11-19T14:38:30;11.50;99.90
54126;DHT22;40360;52.992;6.796;2023-11-19T14:40:56;11.50;99.90
54126;DHT22;40360;52.992;6.796;2023-11-19T14:43:21;11.50;99.90
54126;DHT22;40360;52.992;6.796;2023-11-19T14:45:47;11.50;99.90
54126;DHT22;40360;52.992;6.796;2023-11-19T14:48:13;11.50;99.90
54126;DHT22;40360;52.992;6.796;2023-11-19T14:50:39;11.50;99.90
54126;DHT22;40360;52.992;6.796;2023-11-19T14:53:05;11.50;99.90
54126;DHT22;40360;52.992;6.796;2023-11-19T14:55:31;11.40;99.90
54126;DHT22;40360;52.992;6.796;2023-11-19T14:57:57;11.40;99.90
54126;DHT22;40360;52.992;6.796;2023-11-19T15:00:23;11.40;99.90
54126;DHT22;40360;52.992;6.796;2023-11-19T15:02:52;11.40;99.90
54126;DHT22;40360;52.992;6.796;2023-11-19T15:05:18;11.40;99.90
54126;DHT22;40360;52.992;6.796;2023-11-19T15:07:45;11.30;99.90
54126;DHT22;40360;52.992;6.796;2023-11-19T15:10:11;11.30;99.90
54126;DHT22;40360;52.992;6.796;2023-11-19T15:12:38;11.30;99.90
54126;DHT22;40360;52.992;6.796;2023-11-19T15:15:08;11.30;99.90
54126;DHT22;40360;52.992;6.796;2023-11-19T15:17:35;11.30;99.90
54126;DHT22;40360;52.992;6.796;2023-11-19T15:20:04;11.30;99.90
54126;DHT22;40360;52.992;6.796;2023-11-19T15:22:30;11.30;99.90
54126;DHT22;40360;52.992;6.796;2023-11-19T15:24:56;11.30;99.90
54126;DHT22;40360;52.992;6.796;2023-11-19T15:27:22;11.30;99.90
54126;DHT22;40360;52.992;6.796;2023-11-19T15:29:48;11.30;99.90
54126;DHT22;40360;52.992;6.796;2023-11-19T15:32:14;11.30;99.90
54126;DHT22;40360;52.992;6.796;2023-11-19T15:34:40;11.30;99.90
54126;DHT22;40360;52.992;6.796;2023-11-19T15:37:07;11.20;99.90
54126;DHT22;40360;52.992;6.796;2023-11-19T15:39:33;11.10;99.90
54126;DHT22;40360;52.992;6.796;2023-11-19T15:42:01;11.10;99.90
54126;DHT22;40360;52.992;6.796;2023-11-19T15:44:27;11.10;99.90
54126;DHT22;40360;52.992;6.796;2023-11-19T15:46:54;11.00;99.90
54126;DHT22;40360;52.992;6.796;2023-11-19T15:49:20;11.00;99.90
54126;DHT22;40360;52.992;6.796;2023-11-19T15:51:46;11.00;99.90
54126;DHT22;40360;52.992;6.796;2023-11-19T15:54:12;11.00;99.90
54126;DHT22;40360;52.992;6.796;2023-11-19T15:56:38;11.00;99.90
54126;DHT22;40360;52.992;6.796;2023-11-19T15:59:04;10.90;99.90
54126;DHT22;40360;52.992;6.796;2023-11-19T16:01:30;10.90;99.90
54126;DHT22;40360;52.992;6.796;2023-11-19T16:03:56;10.90;99.90
54126;DHT22;40360;52.992;6.796;2023-11-19T16:06:22;10.90;99.90
54126;DHT22;40360;52.992;6.796;2023-11-19T16:08:48;10.90;99.90
54126;DHT22;40360;52.992;6.796;2023-11-19T16:11:15;10.90;99.90